Terminal Aerodrome Forecast
Issued by NWS

Current Version | Previous Version | Text Only | Print | Product List | Glossary Off
Versions: 1 2 3 4 5 6 7 8 9 10 11 12 13 14 15 16 17 18 19 20 21 22 23

000
FTUS41 KRLX 271146 RRA
TAFCKB
TAF
KCKB 271146Z 2712/2812 00000KT 6SM BR BKN040
     FM271300 00000KT 6SM BR VCTS BKN035CB
     FM280000 00000KT P6SM BKN035
     FM280600 00000KT P6SM BKN200=

USA.gov is the U.S. government's official web portal to all federal, state and local government web resources and services.